sensor_id;sensor_type;location;lat;lon;timestamp;temperature;humidity
7846;DHT22;3968;51.424;6.788;2024-03-08T00:02:00;5.80;52.20
7846;DHT22;3968;51.424;6.788;2024-03-08T00:04:25;5.80;51.00
7846;DHT22;3968;51.424;6.788;2024-03-08T00:06:51;5.70;50.90
7846;DHT22;3968;51.424;6.788;2024-03-08T00:09:17;5.70;52.40
7846;DHT22;3968;51.424;6.788;2024-03-08T00:11:42;5.60;54.10
7846;DHT22;3968;51.424;6.788;2024-03-08T00:14:08;5.60;54.10
7846;DHT22;3968;51.424;6.788;2024-03-08T00:16:33;5.60;53.40
7846;DHT22;3968;51.424;6.788;2024-03-08T00:19:00;5.70;51.70
7846;DHT22;3968;51.424;6.788;2024-03-08T00:21:26;5.60;53.10
7846;DHT22;3968;51.424;6.788;2024-03-08T00:23:53;5.70;52.80
7846;DHT22;3968;51.424;6.788;2024-03-08T00:26:20;5.70;51.90
7846;DHT22;3968;51.424;6.788;2024-03-08T00:28:48;5.60;53.50
7846;DHT22;3968;51.424;6.788;2024-03-08T00:31:14;5.60;53.70
7846;DHT22;3968;51.424;6.788;2024-03-08T00:33:42;5.70;51.50
7846;DHT22;3968;51.424;6.788;2024-03-08T00:36:08;5.70;51.30
7846;DHT22;3968;51.424;6.788;2024-03-08T00:38:33;5.70;51.80
7846;DHT22;3968;51.424;6.788;2024-03-08T00:40:59;5.60;53.80
7846;DHT22;3968;51.424;6.788;2024-03-08T00:43:25;5.60;50.70
7846;DHT22;3968;51.424;6.788;2024-03-08T00:45:51;5.60;49.00
7846;DHT22;3968;51.424;6.788;2024-03-08T00:48:17;5.60;49.70
7846;DHT22;3968;51.424;6.788;2024-03-08T00:50:42;5.60;49.60
7846;DHT22;3968;51.424;6.788;2024-03-08T00:53:14;5.60;51.80
7846;DHT22;3968;51.424;6.788;2024-03-08T00:55:39;5.50;54.60
7846;DHT22;3968;51.424;6.788;2024-03-08T00:58:05;5.50;55.00
7846;DHT22;3968;51.424;6.788;2024-03-08T01:00:30;5.50;55.30
7846;DHT22;3968;51.424;6.788;2024-03-08T01:02:56;5.50;54.60
7846;DHT22;3968;51.424;6.788;2024-03-08T01:05:22;5.50;55.20
7846;DHT22;3968;51.424;6.788;2024-03-08T01:07:50;5.50;54.90
7846;DHT22;3968;51.424;6.788;2024-03-08T01:10:15;5.50;55.50
7846;DHT22;3968;51.424;6.788;2024-03-08T01:12:41;5.50;54.20
7846;DHT22;3968;51.424;6.788;2024-03-08T01:15:09;5.40;55.00
7846;DHT22;3968;51.424;6.788;2024-03-08T01:17:34;5.40;56.80
7846;DHT22;3968;51.424;6.788;2024-03-08T01:20:00;5.40;56.80
7846;DHT22;3968;51.424;6.788;2024-03-08T01:22:26;5.40;57.30
7846;DHT22;3968;51.424;6.788;2024-03-08T01:24:53;5.40;54.50
7846;DHT22;3968;51.424;6.788;2024-03-08T01:27:19;5.40;55.90
7846;DHT22;3968;51.424;6.788;2024-03-08T01:29:44;5.30;58.10
7846;DHT22;3968;51.424;6.788;2024-03-08T01:32:10;5.30;57.10
7846;DHT22;3968;51.424;6.788;2024-03-08T01:34:35;5.30;58.00
7846;DHT22;3968;51.424;6.788;2024-03-08T01:37:01;5.30;56.30
7846;DHT22;3968;51.424;6.788;2024-03-08T01:39:26;5.30;56.10
7846;DHT22;3968;51.424;6.788;2024-03-08T01:41:52;5.30;56.20
7846;DHT22;3968;51.424;6.788;2024-03-08T01:44:19;5.20;59.60
7846;DHT22;3968;51.424;6.788;2024-03-08T01:46:46;5.20;57.50
7846;DHT22;3968;51.424;6.788;2024-03-08T01:49:12;5.20;59.50
7846;DHT22;3968;51.424;6.788;2024-03-08T01:51:40;5.20;59.10
7846;DHT22;3968;51.424;6.788;2024-03-08T01:54:07;5.20;58.70
7846;DHT22;3968;51.424;6.788;2024-03-08T01:56:35;5.20;61.20
7846;DHT22;3968;51.424;6.788;2024-03-08T01:59:02;5.20;60.60
7846;DHT22;3968;51.424;6.788;2024-03-08T02:01:28;5.20;60.50
7846;DHT22;3968;51.424;6.788;2024-03-08T02:03:54;5.20;62.40
7846;DHT22;3968;51.424;6.788;2024-03-08T02:06:20;5.20;61.80
7846;DHT22;3968;51.424;6.788;2024-03-08T02:08:46;5.10;62.90
7846;DHT22;3968;51.424;6.788;2024-03-08T02:11:12;5.10;63.60
7846;DHT22;3968;51.424;6.788;2024-03-08T02:13:38;5.00;66.90
7846;DHT22;3968;51.424;6.788;2024-03-08T02:16:04;5.10;68.30
7846;DHT22;3968;51.424;6.788;2024-03-08T02:18:33;5.10;70.70
7846;DHT22;3968;51.424;6.788;2024-03-08T02:21:01;5.00;70.30
7846;DHT22;3968;51.424;6.788;2024-03-08T02:23:28;5.00;69.20
7846;DHT22;3968;51.424;6.788;2024-03-08T02:25:55;4.90;72.30
7846;DHT22;3968;51.424;6.788;2024-03-08T02:28:22;4.90;72.50
7846;DHT22;3968;51.424;6.788;2024-03-08T02:30:49;4.90;74.40
7846;DHT22;3968;51.424;6.788;2024-03-08T02:33:17;4.90;71.20
7846;DHT22;3968;51.424;6.788;2024-03-08T02:35:43;4.90;70.90
7846;DHT22;3968;51.424;6.788;2024-03-08T02:38:14;4.80;76.80
7846;DHT22;3968;51.424;6.788;2024-03-08T02:40:44;4.80;82.40
7846;DHT22;3968;51.424;6.788;2024-03-08T02:43:10;4.80;80.60
7846;DHT22;3968;51.424;6.788;2024-03-08T02:45:36;4.70;78.90
7846;DHT22;3968;51.424;6.788;2024-03-08T02:48:02;4.70;80.70
7846;DHT22;3968;51.424;6.788;2024-03-08T02:50:28;4.80;79.40
7846;DHT22;3968;51.424;6.788;2024-03-08T02:52:53;4.80;76.80
7846;DHT22;3968;51.424;6.788;2024-03-08T02:55:19;4.80;81.50
7846;DHT22;3968;51.424;6.788;2024-03-08T02:57:46;4.80;77.10
7846;DHT22;3968;51.424;6.788;2024-03-08T03:00:13;4.70;78.70
7846;DHT22;3968;51.424;6.788;2024-03-08T03:02:39;4.70;81.40
7846;DHT22;3968;51.424;6.788;2024-03-08T03:05:05;4.70;79.30
7846;DHT22;3968;51.424;6.788;2024-03-08T03:07:34;4.70;80.20
7846;DHT22;3968;51.424;6.788;2024-03-08T03:10:00;4.60;82.30
7846;DHT22;3968;51.424;6.788;2024-03-08T03:12:30;4.60;82.50
7846;DHT22;3968;51.424;6.788;2024-03-08T03:14:56;4.70;80.20
7846;DHT22;3968;51.424;6.788;2024-03-08T03:17:26;4.60;83.70
7846;DHT22;3968;51.424;6.788;2024-03-08T03:19:52;4.60;84.30
7846;DHT22;3968;51.424;6.788;2024-03-08T03:22:19;4.60;84.10
7846;DHT22;3968;51.424;6.788;2024-03-08T03:24:45;4.70;84.20
7846;DHT22;3968;51.424;6.788;2024-03-08T03:27:14;4.60;82.40
7846;DHT22;3968;51.424;6.788;2024-03-08T03:29:43;4.60;85.90
7846;DHT22;3968;51.424;6.788;2024-03-08T03:32:12;4.50;86.30
7846;DHT22;3968;51.424;6.788;2024-03-08T03:34:39;4.50;87.50
7846;DHT22;3968;51.424;6.788;2024-03-08T03:37:05;4.50;87.20
7846;DHT22;3968;51.424;6.788;2024-03-08T03:39:32;4.40;90.60
7846;DHT22;3968;51.424;6.788;2024-03-08T03:42:00;4.40;91.30
7846;DHT22;3968;51.424;6.788;2024-03-08T03:44:27;4.30;91.30
7846;DHT22;3968;51.424;6.788;2024-03-08T03:46:53;4.30;92.40
7846;DHT22;3968;51.424;6.788;2024-03-08T03:49:19;4.30;93.10
7846;DHT22;3968;51.424;6.788;2024-03-08T03:51:45;4.40;92.60
7846;DHT22;3968;51.424;6.788;2024-03-08T03:54:11;4.40;91.70
7846;DHT22;3968;51.424;6.788;2024-03-08T03:56:36;4.40;93.10
7846;DHT22;3968;51.424;6.788;2024-03-08T03:59:02;4.30;91.70
7846;DHT22;3968;51.424;6.788;2024-03-08T04:01:28;4.30;92.30
7846;DHT22;3968;51.424;6.788;2024-03-08T04:03:55;4.40;92.70
7846;DHT22;3968;51.424;6.788;2024-03-08T04:06:20;4.30;91.90
7846;DHT22;3968;51.424;6.788;2024-03-08T04:08:46;4.40;91.90
7846;DHT22;3968;51.424;6.788;2024-03-08T04:11:11;4.30;91.30
7846;DHT22;3968;51.424;6.788;2024-03-08T04:13:37;4.30;92.00
7846;DHT22;3968;51.424;6.788;2024-03-08T04:16:03;4.20;93.20
7846;DHT22;3968;51.424;6.788;2024-03-08T04:18:33;4.20;94.00
7846;DHT22;3968;51.424;6.788;2024-03-08T04:21:01;4.20;94.70
7846;DHT22;3968;51.424;6.788;2024-03-08T04:23:27;4.20;94.40
7846;DHT22;3968;51.424;6.788;2024-03-08T04:25:54;4.20;93.10
7846;DHT22;3968;51.424;6.788;2024-03-08T04:28:19;4.20;94.20
7846;DHT22;3968;51.424;6.788;2024-03-08T04:30:45;4.30;93.70
7846;DHT22;3968;51.424;6.788;2024-03-08T04:33:11;4.20;94.20
7846;DHT22;3968;51.424;6.788;2024-03-08T04:35:37;4.10;94.20
7846;DHT22;3968;51.424;6.788;2024-03-08T04:38:02;4.10;95.00
7846;DHT22;3968;51.424;6.788;2024-03-08T04:40:30;4.10;94.90
7846;DHT22;3968;51.424;6.788;2024-03-08T04:42:58;4.00;96.60
7846;DHT22;3968;51.424;6.788;2024-03-08T04:45:24;4.10;95.40
7846;DHT22;3968;51.424;6.788;2024-03-08T04:47:51;4.10;94.90
7846;DHT22;3968;51.424;6.788;2024-03-08T04:50:18;4.10;93.90
7846;DHT22;3968;51.424;6.788;2024-03-08T04:52:43;4.10;94.20
7846;DHT22;3968;51.424;6.788;2024-03-08T04:55:09;4.00;94.30
7846;DHT22;3968;51.424;6.788;2024-03-08T04:57:35;4.00;94.20
7846;DHT22;3968;51.424;6.788;2024-03-08T05:00:02;4.00;94.00
7846;DHT22;3968;51.424;6.788;2024-03-08T05:02:27;4.00;93.50
7846;DHT22;3968;51.424;6.788;2024-03-08T05:04:53;4.00;93.90
7846;DHT22;3968;51.424;6.788;2024-03-08T05:07:19;4.00;93.40
7846;DHT22;3968;51.424;6.788;2024-03-08T05:09:44;4.00;93.90
7846;DHT22;3968;51.424;6.788;2024-03-08T05:12:17;3.90;94.60
7846;DHT22;3968;51.424;6.788;2024-03-08T05:14:43;3.90;94.40
7846;DHT22;3968;51.424;6.788;2024-03-08T05:17:08;3.90;94.80
7846;DHT22;3968;51.424;6.788;2024-03-08T05:19:36;3.90;95.50
7846;DHT22;3968;51.424;6.788;2024-03-08T05:22:02;3.90;95.50
7846;DHT22;3968;51.424;6.788;2024-03-08T05:24:28;3.90;94.70
7846;DHT22;3968;51.424;6.788;2024-03-08T05:26:55;3.90;94.60
7846;DHT22;3968;51.424;6.788;2024-03-08T05:29:20;3.80;95.60
7846;DHT22;3968;51.424;6.788;2024-03-08T05:31:48;3.80;96.30
7846;DHT22;3968;51.424;6.788;2024-03-08T05:34:15;3.70;96.80
7846;DHT22;3968;51.424;6.788;2024-03-08T05:36:41;3.70;96.50
7846;DHT22;3968;51.424;6.788;2024-03-08T05:39:10;3.70;97.70
7846;DHT22;3968;51.424;6.788;2024-03-08T05:41:37;3.60;98.60
7846;DHT22;3968;51.424;6.788;2024-03-08T05:44:03;3.50;99.30
7846;DHT22;3968;51.424;6.788;2024-03-08T05:46:29;3.60;99.60
7846;DHT22;3968;51.424;6.788;2024-03-08T05:48:54;3.60;99.60
7846;DHT22;3968;51.424;6.788;2024-03-08T05:51:20;3.60;98.90
7846;DHT22;3968;51.424;6.788;2024-03-08T05:53:47;3.60;98.20
7846;DHT22;3968;51.424;6.788;2024-03-08T05:56:12;3.60;98.50
7846;DHT22;3968;51.424;6.788;2024-03-08T05:58:38;3.50;99.90
7846;DHT22;3968;51.424;6.788;2024-03-08T06:01:04;3.50;99.90
7846;DHT22;3968;51.424;6.788;2024-03-08T06:03:33;3.50;99.90
7846;DHT22;3968;51.424;6.788;2024-03-08T06:05:59;3.50;99.60
7846;DHT22;3968;51.424;6.788;2024-03-08T06:08:25;3.50;99.90
7846;DHT22;3968;51.424;6.788;2024-03-08T06:10:55;3.40;99.90
7846;DHT22;3968;51.424;6.788;2024-03-08T06:13:21;3.50;99.90
7846;DHT22;3968;51.424;6.788;2024-03-08T06:15:47;3.50;99.90
7846;DHT22;3968;51.424;6.788;2024-03-08T06:18:12;3.50;99.90
7846;DHT22;3968;51.424;6.788;2024-03-08T06:20:38;3.50;99.90
7846;DHT22;3968;51.424;6.788;2024-03-08T06:23:03;3.50;99.90
7846;DHT22;3968;51.424;6.788;2024-03-08T06:25:29;3.60;99.90
7846;DHT22;3968;51.424;6.788;2024-03-08T06:27:55;3.60;99.40
7846;DHT22;3968;51.424;6.788;2024-03-08T06:30:20;3.60;99.90
7846;DHT22;3968;51.424;6.788;2024-03-08T06:32:46;3.60;99.60
7846;DHT22;3968;51.424;6.788;2024-03-08T06:35:12;3.60;99.90
7846;DHT22;3968;51.424;6.788;2024-03-08T06:37:40;3.70;99.70
7846;DHT22;3968;51.424;6.788;2024-03-08T06:40:10;3.70;99.40
7846;DHT22;3968;51.424;6.788;2024-03-08T06:42:39;3.70;99.30
7846;DHT22;3968;51.424;6.788;2024-03-08T06:45:05;3.70;99.60
7846;DHT22;3968;51.424;6.788;2024-03-08T06:47:31;3.70;99.40
7846;DHT22;3968;51.424;6.788;2024-03-08T06:49:58;3.80;98.70
7846;DHT22;3968;51.424;6.788;2024-03-08T06:52:24;3.80;98.80
7846;DHT22;3968;51.424;6.788;2024-03-08T06:54:49;3.80;98.40
7846;DHT22;3968;51.424;6.788;2024-03-08T06:57:17;3.80;98.50
7846;DHT22;3968;51.424;6.788;2024-03-08T06:59:43;3.80;98.30
7846;DHT22;3968;51.424;6.788;2024-03-08T07:02:08;3.80;98.80
7846;DHT22;3968;51.424;6.788;2024-03-08T07:04:35;3.90;98.40
7846;DHT22;3968;51.424;6.788;2024-03-08T07:07:04;3.90;99.00
7846;DHT22;3968;51.424;6.788;2024-03-08T07:09:30;3.90;98.30
7846;DHT22;3968;51.424;6.788;2024-03-08T07:11:55;3.90;98.20
7846;DHT22;3968;51.424;6.788;2024-03-08T07:14:22;4.00;98.20
7846;DHT22;3968;51.424;6.788;2024-03-08T07:16:48;4.00;98.60
7846;DHT22;3968;51.424;6.788;2024-03-08T07:19:13;4.00;98.90
7846;DHT22;3968;51.424;6.788;2024-03-08T07:21:39;4.00;98.70
7846;DHT22;3968;51.424;6.788;2024-03-08T07:24:05;4.00;98.60
7846;DHT22;3968;51.424;6.788;2024-03-08T07:26:54;4.10;98.20
7846;DHT22;3968;51.424;6.788;2024-03-08T07:29:21;4.20;97.20
7846;DHT22;3968;51.424;6.788;2024-03-08T07:31:47;4.20;97.70
7846;DHT22;3968;51.424;6.788;2024-03-08T07:34:36;4.20;97.40
7846;DHT22;3968;51.424;6.788;2024-03-08T07:37:02;4.30;97.50
7846;DHT22;3968;51.424;6.788;2024-03-08T07:39:29;4.30;97.60
7846;DHT22;3968;51.424;6.788;2024-03-08T07:41:55;4.30;98.00
7846;DHT22;3968;51.424;6.788;2024-03-08T07:44:21;4.40;97.60
7846;DHT22;3968;51.424;6.788;2024-03-08T07:46:46;4.30;97.40
7846;DHT22;3968;51.424;6.788;2024-03-08T07:49:12;4.40;97.10
7846;DHT22;3968;51.424;6.788;2024-03-08T07:51:38;4.50;97.60
7846;DHT22;3968;51.424;6.788;2024-03-08T07:54:04;4.50;97.20
7846;DHT22;3968;51.424;6.788;2024-03-08T07:56:30;4.60;97.00
7846;DHT22;3968;51.424;6.788;2024-03-08T07:58:56;4.60;96.30
7846;DHT22;3968;51.424;6.788;2024-03-08T08:01:21;4.70;95.50
7846;DHT22;3968;51.424;6.788;2024-03-08T08:03:47;4.70;95.90
7846;DHT22;3968;51.424;6.788;2024-03-08T08:06:15;4.70;95.10
7846;DHT22;3968;51.424;6.788;2024-03-08T08:08:44;4.80;95.40
7846;DHT22;3968;51.424;6.788;2024-03-08T08:11:10;4.90;95.10
7846;DHT22;3968;51.424;6.788;2024-03-08T08:13:41;4.90;94.60
7846;DHT22;3968;51.424;6.788;2024-03-08T08:16:09;4.90;93.90
7846;DHT22;3968;51.424;6.788;2024-03-08T08:18:36;5.00;93.40
7846;DHT22;3968;51.424;6.788;2024-03-08T08:21:02;5.00;93.70
7846;DHT22;3968;51.424;6.788;2024-03-08T08:23:28;5.10;94.20
7846;DHT22;3968;51.424;6.788;2024-03-08T08:25:55;5.10;94.20
7846;DHT22;3968;51.424;6.788;2024-03-08T08:28:21;5.20;93.90
7846;DHT22;3968;51.424;6.788;2024-03-08T08:30:46;5.30;93.80
7846;DHT22;3968;51.424;6.788;2024-03-08T08:33:12;5.30;94.30
7846;DHT22;3968;51.424;6.788;2024-03-08T08:35:40;5.40;93.90
7846;DHT22;3968;51.424;6.788;2024-03-08T08:38:06;5.50;93.10
7846;DHT22;3968;51.424;6.788;2024-03-08T08:40:33;5.60;92.70
7846;DHT22;3968;51.424;6.788;2024-03-08T08:42:59;5.60;91.90
7846;DHT22;3968;51.424;6.788;2024-03-08T08:45:25;5.70;91.50
7846;DHT22;3968;51.424;6.788;2024-03-08T08:47:51;5.80;90.30
7846;DHT22;3968;51.424;6.788;2024-03-08T08:50:17;5.90;89.20
7846;DHT22;3968;51.424;6.788;2024-03-08T08:52:48;5.90;84.40
7846;DHT22;3968;51.424;6.788;2024-03-08T08:55:15;6.00;83.10
7846;DHT22;3968;51.424;6.788;2024-03-08T08:57:46;6.00;79.60
7846;DHT22;3968;51.424;6.788;2024-03-08T09:00:13;6.10;80.20
7846;DHT22;3968;51.424;6.788;2024-03-08T09:02:43;6.10;79.50
7846;DHT22;3968;51.424;6.788;2024-03-08T09:05:09;6.20;78.20
7846;DHT22;3968;51.424;6.788;2024-03-08T09:07:35;6.20;73.50
7846;DHT22;3968;51.424;6.788;2024-03-08T09:10:00;6.30;70.60
7846;DHT22;3968;51.424;6.788;2024-03-08T09:12:26;6.30;68.70
7846;DHT22;3968;51.424;6.788;2024-03-08T09:14:52;6.30;64.50
7846;DHT22;3968;51.424;6.788;2024-03-08T09:17:18;6.40;62.50
7846;DHT22;3968;51.424;6.788;2024-03-08T09:19:46;6.40;60.90
7846;DHT22;3968;51.424;6.788;2024-03-08T09:22:13;6.40;64.90
7846;DHT22;3968;51.424;6.788;2024-03-08T09:24:38;6.40;63.20
7846;DHT22;3968;51.424;6.788;2024-03-08T09:27:04;6.40;59.20
7846;DHT22;3968;51.424;6.788;2024-03-08T09:29:30;6.50;58.40
7846;DHT22;3968;51.424;6.788;2024-03-08T09:31:56;6.50;57.20
7846;DHT22;3968;51.424;6.788;2024-03-08T09:34:21;6.50;57.10
7846;DHT22;3968;51.424;6.788;2024-03-08T09:36:47;6.60;58.50
7846;DHT22;3968;51.424;6.788;2024-03-08T09:39:13;6.60;56.80
7846;DHT22;3968;51.424;6.788;2024-03-08T09:41:45;6.60;57.30
7846;DHT22;3968;51.424;6.788;2024-03-08T09:44:13;6.70;55.30
7846;DHT22;3968;51.424;6.788;2024-03-08T09:46:39;6.70;54.20
7846;DHT22;3968;51.424;6.788;2024-03-08T09:49:06;6.70;52.80
7846;DHT22;3968;51.424;6.788;2024-03-08T09:51:33;6.80;53.50
7846;DHT22;3968;51.424;6.788;2024-03-08T09:54:00;6.80;51.20
7846;DHT22;3968;51.424;6.788;2024-03-08T09:56:34;6.90;50.50
7846;DHT22;3968;51.424;6.788;2024-03-08T09:59:00;7.00;51.00
7846;DHT22;3968;51.424;6.788;2024-03-08T10:01:44;7.10;50.00
7846;DHT22;3968;51.424;6.788;2024-03-08T10:04:11;7.10;46.40
7846;DHT22;3968;51.424;6.788;2024-03-08T10:06:39;7.20;44.20
7846;DHT22;3968;51.424;6.788;2024-03-08T10:09:05;7.20;42.30
7846;DHT22;3968;51.424;6.788;2024-03-08T10:11:33;7.30;39.70
7846;DHT22;3968;51.424;6.788;2024-03-08T10:13:59;7.30;38.10
7846;DHT22;3968;51.424;6.788;2024-03-08T10:16:27;7.40;38.30
7846;DHT22;3968;51.424;6.788;2024-03-08T10:18:52;7.40;38.70
7846;DHT22;3968;51.424;6.788;2024-03-08T10:21:19;7.50;36.30
7846;DHT22;3968;51.424;6.788;2024-03-08T10:23:44;7.50;34.10
7846;DHT22;3968;51.424;6.788;2024-03-08T10:26:16;7.50;30.90
7846;DHT22;3968;51.424;6.788;2024-03-08T10:28:46;7.60;32.90
7846;DHT22;3968;51.424;6.788;2024-03-08T10:31:15;7.70;32.00
7846;DHT22;3968;51.424;6.788;2024-03-08T10:33:41;7.70;29.60
7846;DHT22;3968;51.424;6.788;2024-03-08T10:36:08;7.80;27.00
7846;DHT22;3968;51.424;6.788;2024-03-08T10:38:36;7.80;27.50
7846;DHT22;3968;51.424;6.788;2024-03-08T10:41:03;7.90;26.80
7846;DHT22;3968;51.424;6.788;2024-03-08T10:46:26;8.00;25.10
7846;DHT22;3968;51.424;6.788;2024-03-08T10:48:57;8.00;23.40
7846;DHT22;3968;51.424;6.788;2024-03-08T10:51:29;8.10;21.60
7846;DHT22;3968;51.424;6.788;2024-03-08T10:53:57;8.20;20.30
7846;DHT22;3968;51.424;6.788;2024-03-08T10:56:24;8.20;20.80
7846;DHT22;3968;51.424;6.788;2024-03-08T10:58:54;8.30;19.70
7846;DHT22;3968;51.424;6.788;2024-03-08T11:01:20;8.30;18.20
7846;DHT22;3968;51.424;6.788;2024-03-08T11:03:47;8.40;14.90
7846;DHT22;3968;51.424;6.788;2024-03-08T11:06:18;8.40;13.90
7846;DHT22;3968;51.424;6.788;2024-03-08T11:08:47;8.50;13.00
7846;DHT22;3968;51.424;6.788;2024-03-08T11:11:25;8.50;12.90
7846;DHT22;3968;51.424;6.788;2024-03-08T11:13:53;8.60;11.40
7846;DHT22;3968;51.424;6.788;2024-03-08T11:18:54;8.70;8.30
7846;DHT22;3968;51.424;6.788;2024-03-08T11:21:20;8.70;8.40
7846;DHT22;3968;51.424;6.788;2024-03-08T11:24:02;8.70;7.90
7846;DHT22;3968;51.424;6.788;2024-03-08T11:26:31;8.80;8.60
7846;DHT22;3968;51.424;6.788;2024-03-08T11:32:11;8.90;7.40
7846;DHT22;3968;51.424;6.788;2024-03-08T11:34:39;8.90;5.40
7846;DHT22;3968;51.424;6.788;2024-03-08T11:37:10;9.00;5.20
7846;DHT22;3968;51.424;6.788;2024-03-08T11:39:39;9.00;5.30
7846;DHT22;3968;51.424;6.788;2024-03-08T11:42:05;9.10;4.40
7846;DHT22;3968;51.424;6.788;2024-03-08T11:44:32;9.10;3.40
7846;DHT22;3968;51.424;6.788;2024-03-08T11:46:57;9.10;3.50
7846;DHT22;3968;51.424;6.788;2024-03-08T11:49:23;9.20;3.40
7846;DHT22;3968;51.424;6.788;2024-03-08T11:51:52;9.20;4.20
7846;DHT22;3968;51.424;6.788;2024-03-08T11:54:19;9.20;4.30
7846;DHT22;3968;51.424;6.788;2024-03-08T11:56:45;9.30;5.10
7846;DHT22;3968;51.424;6.788;2024-03-08T11:59:13;9.30;4.70
7846;DHT22;3968;51.424;6.788;2024-03-08T12:01:40;9.30;4.70
7846;DHT22;3968;51.424;6.788;2024-03-08T12:04:05;9.30;5.30
7846;DHT22;3968;51.424;6.788;2024-03-08T12:06:39;9.40;4.90
7846;DHT22;3968;51.424;6.788;2024-03-08T12:09:08;9.40;5.00
7846;DHT22;3968;51.424;6.788;2024-03-08T12:11:34;9.40;4.40
7846;DHT22;3968;51.424;6.788;2024-03-08T12:14:01;9.30;5.00
7846;DHT22;3968;51.424;6.788;2024-03-08T12:16:27;9.40;4.70
7846;DHT22;3968;51.424;6.788;2024-03-08T12:18:53;9.40;3.70
7846;DHT22;3968;51.424;6.788;2024-03-08T12:21:20;9.40;3.10
7846;DHT22;3968;51.424;6.788;2024-03-08T12:23:47;9.40;3.20
7846;DHT22;3968;51.424;6.788;2024-03-08T12:26:25;9.40;2.80
7846;DHT22;3968;51.424;6.788;2024-03-08T12:28:51;9.40;2.00
7846;DHT22;3968;51.424;6.788;2024-03-08T12:31:18;9.40;2.10
7846;DHT22;3968;51.424;6.788;2024-03-08T12:36:15;9.40;1.00
7846;DHT22;3968;51.424;6.788;2024-03-08T12:38:45;9.50;1.00
7846;DHT22;3968;51.424;6.788;2024-03-08T12:41:14;9.50;1.40
7846;DHT22;3968;51.424;6.788;2024-03-08T12:43:40;9.50;1.00
7846;DHT22;3968;51.424;6.788;2024-03-08T12:46:07;9.50;1.80
7846;DHT22;3968;51.424;6.788;2024-03-08T12:48:35;9.50;3.00
7846;DHT22;3968;51.424;6.788;2024-03-08T12:51:06;9.60;1.60
7846;DHT22;3968;51.424;6.788;2024-03-08T12:53:34;9.60;1.00
7846;DHT22;3968;51.424;6.788;2024-03-08T12:56:00;9.70;1.00
7846;DHT22;3968;51.424;6.788;2024-03-08T12:58:26;9.70;1.00
7846;DHT22;3968;51.424;6.788;2024-03-08T13:00:52;9.80;1.00
7846;DHT22;3968;51.424;6.788;2024-03-08T13:03:17;9.90;1.00
7846;DHT22;3968;51.424;6.788;2024-03-08T13:05:43;9.90;1.00
7846;DHT22;3968;51.424;6.788;2024-03-08T13:08:09;9.90;1.00
7846;DHT22;3968;51.424;6.788;2024-03-08T13:10:42;10.00;1.00
7846;DHT22;3968;51.424;6.788;2024-03-08T13:13:09;10.00;1.00
7846;DHT22;3968;51.424;6.788;2024-03-08T13:15:35;10.10;1.00
7846;DHT22;3968;51.424;6.788;2024-03-08T13:18:01;10.10;1.00
7846;DHT22;3968;51.424;6.788;2024-03-08T13:20:27;10.20;1.00
7846;DHT22;3968;51.424;6.788;2024-03-08T13:22:54;10.20;1.00
7846;DHT22;3968;51.424;6.788;2024-03-08T13:25:20;10.30;1.00
7846;DHT22;3968;51.424;6.788;2024-03-08T13:27:46;10.30;1.00
7846;DHT22;3968;51.424;6.788;2024-03-08T13:30:13;10.30;1.00
7846;DHT22;3968;51.424;6.788;2024-03-08T13:32:41;10.40;1.00
7846;DHT22;3968;51.424;6.788;2024-03-08T13:35:09;10.50;1.00
7846;DHT22;3968;51.424;6.788;2024-03-08T13:37:41;10.50;1.00
7846;DHT22;3968;51.424;6.788;2024-03-08T13:40:07;10.50;1.00
7846;DHT22;3968;51.424;6.788;2024-03-08T13:42:37;10.50;1.00
7846;DHT22;3968;51.424;6.788;2024-03-08T13:45:05;10.60;1.00
7846;DHT22;3968;51.424;6.788;2024-03-08T13:47:32;10.60;1.00
7846;DHT22;3968;51.424;6.788;2024-03-08T13:49:59;10.60;1.00
7846;DHT22;3968;51.424;6.788;2024-03-08T13:52:27;10.60;1.00
7846;DHT22;3968;51.424;6.788;2024-03-08T13:54:56;10.60;1.00
7846;DHT22;3968;51.424;6.788;2024-03-08T13:57:21;10.70;1.00
7846;DHT22;3968;51.424;6.788;2024-03-08T13:59:50;10.70;1.00
7846;DHT22;3968;51.424;6.788;2024-03-08T14:02:16;10.70;1.00
7846;DHT22;3968;51.424;6.788;2024-03-08T14:04:43;10.70;1.00
7846;DHT22;3968;51.424;6.788;2024-03-08T14:07:08;10.70;1.00
7846;DHT22;3968;51.424;6.788;2024-03-08T14:09:34;10.80;1.00
7846;DHT22;3968;51.424;6.788;2024-03-08T14:12:03;10.80;1.00
7846;DHT22;3968;51.424;6.788;2024-03-08T14:14:33;10.80;1.00
7846;DHT22;3968;51.424;6.788;2024-03-08T14:17:00;10.80;1.00
7846;DHT22;3968;51.424;6.788;2024-03-08T14:19:27;10.80;1.00
7846;DHT22;3968;51.424;6.788;2024-03-08T14:21:53;10.80;1.00
7846;DHT22;3968;51.424;6.788;2024-03-08T14:24:19;10.80;1.00
7846;DHT22;3968;51.424;6.788;2024-03-08T14:26:45;10.80;1.00
7846;DHT22;3968;51.424;6.788;2024-03-08T14:29:11;10.80;1.00
7846;DHT22;3968;51.424;6.788;2024-03-08T14:31:38;10.90;1.00
7846;DHT22;3968;51.424;6.788;2024-03-08T14:34:04;10.80;1.00
7846;DHT22;3968;51.424;6.788;2024-03-08T14:36:29;10.90;1.00
7846;DHT22;3968;51.424;6.788;2024-03-08T14:38:55;10.80;1.00
7846;DHT22;3968;51.424;6.788;2024-03-08T14:41:21;10.90;1.00
7846;DHT22;3968;51.424;6.788;2024-03-08T14:43:47;10.90;1.00
7846;DHT22;3968;51.424;6.788;2024-03-08T14:46:14;10.90;1.00
7846;DHT22;3968;51.424;6.788;2024-03-08T14:48:43;10.90;1.00
7846;DHT22;3968;51.424;6.788;2024-03-08T14:51:09;10.90;1.00
7846;DHT22;3968;51.424;6.788;2024-03-08T14:53:40;10.90;1.00
7846;DHT22;3968;51.424;6.788;2024-03-08T14:56:09;10.90;1.00
7846;DHT22;3968;51.424;6.788;2024-03-08T14:58:35;10.90;1.00
7846;DHT22;3968;51.424;6.788;2024-03-08T15:01:01;10.90;1.00
7846;DHT22;3968;51.424;6.788;2024-03-08T15:03:27;10.90;1.00
7846;DHT22;3968;51.424;6.788;2024-03-08T15:05:54;10.90;1.00
7846;DHT22;3968;51.424;6.788;2024-03-08T15:08:21;10.90;1.00
7846;DHT22;3968;51.424;6.788;2024-03-08T15:10:48;10.90;1.00
7846;DHT22;3968;51.424;6.788;2024-03-08T15:13:20;10.90;1.00
7846;DHT22;3968;51.424;6.788;2024-03-08T15:15:46;10.90;1.00
7846;DHT22;3968;51.424;6.788;2024-03-08T15:18:12;10.80;1.00
7846;DHT22;3968;51.424;6.788;2024-03-08T15:20:39;10.80;1.00
7846;DHT22;3968;51.424;6.788;2024-03-08T15:23:06;10.80;1.00
7846;DHT22;3968;51.424;6.788;2024-03-08T15:25:34;10.80;1.00
7846;DHT22;3968;51.424;6.788;2024-03-08T15:28:02;10.80;1.00
7846;DHT22;3968;51.424;6.788;2024-03-08T15:30:29;10.80;1.00
7846;DHT22;3968;51.424;6.788;2024-03-08T15:32:56;10.80;1.00
7846;DHT22;3968;51.424;6.788;2024-03-08T15:35:25;10.80;1.00
7846;DHT22;3968;51.424;6.788;2024-03-08T15:37:51;10.70;1.00
7846;DHT22;3968;51.424;6.788;2024-03-08T15:40:18;10.70;1.00
7846;DHT22;3968;51.424;6.788;2024-03-08T15:42:56;10.70;1.00
7846;DHT22;3968;51.424;6.788;2024-03-08T15:45:23;10.70;1.00
7846;DHT22;3968;51.424;6.788;2024-03-08T15:47:49;10.70;1.00
7846;DHT22;3968;51.424;6.788;2024-03-08T15:50:15;10.70;1.00
7846;DHT22;3968;51.424;6.788;2024-03-08T15:52:44;10.70;1.00
7846;DHT22;3968;51.424;6.788;2024-03-08T15:55:17;10.70;1.00
7846;DHT22;3968;51.424;6.788;2024-03-08T15:57:46;10.70;1.00
7846;DHT22;3968;51.424;6.788;2024-03-08T16:00:14;10.60;1.00
7846;DHT22;3968;51.424;6.788;2024-03-08T16:02:44;10.60;1.00
7846;DHT22;3968;51.424;6.788;2024-03-08T16:05:09;10.60;1.00
7846;DHT22;3968;51.424;6.788;2024-03-08T16:07:37;10.60;1.00
7846;DHT22;3968;51.424;6.788;2024-03-08T16:10:04;10.60;1.00
7846;DHT22;3968;51.424;6.788;2024-03-08T16:12:35;10.50;1.00
7846;DHT22;3968;51.424;6.788;2024-03-08T16:15:01;10.50;1.00
7846;DHT22;3968;51.424;6.788;2024-03-08T16:17:27;10.50;1.00
7846;DHT22;3968;51.424;6.788;2024-03-08T16:19:52;10.50;1.00
7846;DHT22;3968;51.424;6.788;2024-03-08T16:22:21;10.50;1.00
7846;DHT22;3968;51.424;6.788;2024-03-08T16:24:46;10.50;1.00
7846;DHT22;3968;51.424;6.788;2024-03-08T16:27:16;10.40;1.00
7846;DHT22;3968;51.424;6.788;2024-03-08T16:29:42;10.40;1.00